createdAt,value
2019-01-13T00:00:19.545Z,997.13
2019-01-13T00:01:19.515Z,997.16
2019-01-13T00:02:19.556Z,997.15
2019-01-13T00:03:19.776Z,997.14
2019-01-13T00:04:19.522Z,997.13
2019-01-13T00:05:19.473Z,997.09
2019-01-13T00:06:19.464Z,997.15
2019-01-13T00:07:19.457Z,997.19
2019-01-13T00:08:19.441Z,997.21
2019-01-13T00:09:19.431Z,997.22
2019-01-13T00:10:19.460Z,997.24
2019-01-13T00:11:19.414Z,997.25
2019-01-13T00:12:19.399Z,997.23
2019-01-13T00:13:19.392Z,997.28
2019-01-13T00:14:19.379Z,997.26
2019-01-13T00:15:19.887Z,997.27
2019-01-13T00:16:20.133Z,997.27
2019-01-13T00:17:19.418Z,997.26
2019-01-13T00:18:19.339Z,997.31
2019-01-13T00:19:19.329Z,997.29
2019-01-13T00:20:19.319Z,997.29
2019-01-13T00:21:19.308Z,997.34
2019-01-13T00:22:19.333Z,997.28
2019-01-13T00:23:19.292Z,997.27
2019-01-13T00:24:19.294Z,997.25
2019-01-13T00:25:19.266Z,997.26
2019-01-13T00:26:19.254Z,997.31
2019-01-13T00:27:19.533Z,997.28
2019-01-13T00:28:19.288Z,997.26
2019-01-13T00:29:19.231Z,997.32
2019-01-13T00:30:19.747Z,997.33
2019-01-13T00:31:19.199Z,997.31
2019-01-13T00:32:19.193Z,997.27
2019-01-13T00:33:19.196Z,997.27
2019-01-13T00:34:19.229Z,997.29
2019-01-13T00:35:19.175Z,997.30
2019-01-13T00:36:19.147Z,997.30
2019-01-13T00:37:19.138Z,997.34
2019-01-13T00:38:19.126Z,997.32
2019-01-13T00:39:22.129Z,997.38
2019-01-13T00:40:20.219Z,997.40
2019-01-13T00:41:19.609Z,997.40
2019-01-13T00:42:20.133Z,997.43
2019-01-13T00:43:19.086Z,997.40
2019-01-13T00:44:19.063Z,997.42
2019-01-13T00:45:19.064Z,997.40
2019-01-13T00:46:19.074Z,997.42
2019-01-13T00:47:19.319Z,997.41
2019-01-13T00:48:19.603Z,997.46
2019-01-13T00:49:19.012Z,997.44
2019-01-13T00:50:19.000Z,997.49
2019-01-13T00:51:18.991Z,997.47
2019-01-13T00:52:19.024Z,997.50
2019-01-13T00:53:18.981Z,997.39
2019-01-13T00:54:19.264Z,997.45
2019-01-13T00:55:18.961Z,997.46
2019-01-13T00:56:19.604Z,997.47
2019-01-13T00:57:18.927Z,997.43
2019-01-13T00:58:18.954Z,997.41
2019-01-13T00:59:18.908Z,997.39
2019-01-13T01:00:26.204Z,997.36
2019-01-13T01:01:19.884Z,997.35
2019-01-13T01:02:18.880Z,997.38
2019-01-13T01:03:18.866Z,997.35
2019-01-13T01:04:18.890Z,997.34
2019-01-13T01:05:18.844Z,997.33
2019-01-13T01:06:18.840Z,997.34
2019-01-13T01:07:19.107Z,997.31
2019-01-13T01:08:18.818Z,997.29
2019-01-13T01:09:18.804Z,997.28
2019-01-13T01:10:18.875Z,997.31
2019-01-13T01:11:18.783Z,997.29
2019-01-13T01:12:18.770Z,997.26
2019-01-13T01:13:18.760Z,997.23
2019-01-13T01:14:19.031Z,997.23
2019-01-13T01:15:18.740Z,997.23
2019-01-13T01:16:18.769Z,997.20
2019-01-13T01:17:18.719Z,997.21
2019-01-13T01:18:18.710Z,997.20
2019-01-13T01:19:18.698Z,997.22
2019-01-13T01:20:18.687Z,997.18
2019-01-13T01:21:18.678Z,997.19
2019-01-13T01:22:18.709Z,997.18
2019-01-13T01:23:18.656Z,997.18
2019-01-13T01:24:18.647Z,997.17
2019-01-13T01:25:18.642Z,997.17
2019-01-13T01:26:18.626Z,997.13
2019-01-13T01:27:18.623Z,997.17
2019-01-13T01:28:18.676Z,997.13
2019-01-13T01:29:18.594Z,997.15
2019-01-13T01:30:18.584Z,997.16
2019-01-13T01:31:18.573Z,997.15
2019-01-13T01:32:18.990Z,997.12
2019-01-13T01:33:25.712Z,997.11
2019-01-13T01:34:19.580Z,997.08
2019-01-13T01:35:18.541Z,997.10
2019-01-13T01:36:18.521Z,997.13
2019-01-13T01:37:18.513Z,997.06
2019-01-13T01:38:18.501Z,997.10
2019-01-13T01:39:18.772Z,997.08
2019-01-13T01:40:18.519Z,997.13
2019-01-13T01:41:18.472Z,997.10
2019-01-13T01:42:18.460Z,997.10
2019-01-13T01:43:18.456Z,997.05
2019-01-13T01:44:18.442Z,997.06
2019-01-13T01:45:18.429Z,997.06
2019-01-13T01:46:19.084Z,997.06
2019-01-13T01:47:18.408Z,997.03
2019-01-13T01:48:18.614Z,997.05
2019-01-13T01:49:18.388Z,997.14
2019-01-13T01:50:18.377Z,997.07
2019-01-13T01:51:18.370Z,997.05
2019-01-13T01:52:18.391Z,997.14
2019-01-13T01:53:18.626Z,997.02
2019-01-13T01:54:18.344Z,997.07
2019-01-13T01:55:18.324Z,997.08
2019-01-13T01:56:18.317Z,997.11
2019-01-13T01:57:18.303Z,997.08
2019-01-13T01:58:18.328Z,997.12
2019-01-13T01:59:18.285Z,997.06
2019-01-13T02:00:18.563Z,997.05
2019-01-13T02:01:18.263Z,997.12
2019-01-13T02:02:18.252Z,997.01
2019-01-13T02:03:18.242Z,997.02
2019-01-13T02:04:18.286Z,997.09
2019-01-13T02:05:18.243Z,997.09
2019-01-13T02:06:18.211Z,997.08
2019-01-13T02:07:18.479Z,997.06
2019-01-13T02:08:18.190Z,997.05
2019-01-13T02:09:18.178Z,997.01
2019-01-13T02:10:18.204Z,996.98
2019-01-13T02:11:18.160Z,996.95
2019-01-13T02:12:18.148Z,996.93
2019-01-13T02:13:18.136Z,996.89
2019-01-13T02:14:18.429Z,996.92
2019-01-13T02:15:18.117Z,996.89
2019-01-13T02:16:18.142Z,996.90
2019-01-13T02:17:18.095Z,996.83
2019-01-13T02:18:18.084Z,996.89
2019-01-13T02:19:18.072Z,996.81
2019-01-13T02:20:18.066Z,996.84
2019-01-13T02:21:18.335Z,996.87
2019-01-13T02:22:18.100Z,996.92
2019-01-13T02:23:18.032Z,996.99
2019-01-13T02:24:18.020Z,996.93
2019-01-13T02:25:18.010Z,996.94
2019-01-13T02:26:19.188Z,996.88
2019-01-13T02:27:17.990Z,996.84
2019-01-13T02:28:19.194Z,996.85
2019-01-13T02:29:18.589Z,996.82
2019-01-13T02:30:17.958Z,996.77
2019-01-13T02:31:17.951Z,996.77
2019-01-13T02:32:17.939Z,996.79
2019-01-13T02:33:17.926Z,996.74
2019-01-13T02:34:18.062Z,996.77
2019-01-13T02:35:18.210Z,996.76
2019-01-13T02:36:17.897Z,996.76
2019-01-13T02:37:17.886Z,996.75
2019-01-13T02:38:17.876Z,996.75
2019-01-13T02:39:17.865Z,996.75
2019-01-13T02:40:17.947Z,996.73
2019-01-13T02:41:17.842Z,996.75
2019-01-13T02:42:18.127Z,996.75
2019-01-13T02:43:17.823Z,996.75
2019-01-13T02:44:17.811Z,996.71
2019-01-13T02:45:17.802Z,996.66
2019-01-13T02:46:17.818Z,996.62
2019-01-13T02:47:17.785Z,996.66
2019-01-13T02:48:17.770Z,996.62
2019-01-13T02:49:18.044Z,996.75
2019-01-13T02:50:17.753Z,996.68
2019-01-13T02:51:17.740Z,996.69
2019-01-13T02:52:17.755Z,996.64
2019-01-13T02:53:17.723Z,996.70
2019-01-13T02:54:17.710Z,996.67
2019-01-13T02:55:17.698Z,996.68
2019-01-13T02:56:17.974Z,996.64
2019-01-13T02:57:17.689Z,996.73
2019-01-13T02:58:17.951Z,996.70
2019-01-13T02:59:17.662Z,996.70
2019-01-13T03:01:33.327Z,996.66
2019-01-13T03:02:33.279Z,996.59
2019-01-13T03:03:33.312Z,996.58
2019-01-13T03:04:33.266Z,996.59
2019-01-13T03:05:33.247Z,996.57
2019-01-13T03:06:33.243Z,996.56
2019-01-13T03:07:33.242Z,996.58
2019-01-13T03:08:33.215Z,996.58
2019-01-13T03:09:33.533Z,996.59
2019-01-13T03:10:33.205Z,996.56
2019-01-13T03:11:33.186Z,996.57
2019-01-13T03:12:33.174Z,996.57
2019-01-13T03:13:33.175Z,996.55
2019-01-13T03:14:33.152Z,996.58
2019-01-13T03:15:33.198Z,996.57
2019-01-13T03:16:33.155Z,996.62
2019-01-13T03:17:33.126Z,996.62
2019-01-13T03:18:33.112Z,996.59
2019-01-13T03:19:33.100Z,996.61
2019-01-13T03:20:33.092Z,996.61
2019-01-13T03:21:33.405Z,996.62
2019-01-13T03:22:33.086Z,996.60
2019-01-13T03:23:33.060Z,996.56
2019-01-13T03:24:33.049Z,996.53
2019-01-13T03:25:33.042Z,996.49
2019-01-13T03:26:33.027Z,996.51
2019-01-13T03:27:33.049Z,996.51
2019-01-13T03:28:34.291Z,996.55
2019-01-13T03:29:32.997Z,996.54
2019-01-13T03:30:33.025Z,996.57
2019-01-13T03:31:32.977Z,996.55
2019-01-13T03:32:32.975Z,996.57
2019-01-13T03:33:33.005Z,996.55
2019-01-13T03:34:32.945Z,996.54
2019-01-13T03:35:33.231Z,996.49
2019-01-13T03:36:32.922Z,996.48
2019-01-13T03:37:32.920Z,996.48
2019-01-13T03:38:32.904Z,996.47
2019-01-13T03:39:33.822Z,996.44
2019-01-13T03:40:32.879Z,996.45
2019-01-13T03:41:32.870Z,996.45
2019-01-13T03:42:33.170Z,996.39
2019-01-13T03:43:32.854Z,996.39
2019-01-13T03:44:33.511Z,996.41
2019-01-13T03:45:32.906Z,996.41
2019-01-13T03:46:32.819Z,996.38
2019-01-13T03:47:32.807Z,996.38
2019-01-13T03:48:32.796Z,996.40
2019-01-13T03:49:33.094Z,996.41
2019-01-13T03:50:32.783Z,996.40
2019-01-13T03:51:33.147Z,996.40
2019-01-13T03:52:32.757Z,996.40
2019-01-13T03:53:32.746Z,996.33
2019-01-13T03:54:32.733Z,996.28
2019-01-13T03:55:32.723Z,996.30
2019-01-13T03:56:33.011Z,996.32
2019-01-13T03:57:32.826Z,996.28
2019-01-13T03:58:32.691Z,996.22
2019-01-13T03:59:32.681Z,996.20
2019-01-13T04:00:32.671Z,996.20
2019-01-13T04:01:32.660Z,996.13
2019-01-13T04:02:32.657Z,996.11
2019-01-13T04:03:32.986Z,996.06
2019-01-13T04:04:32.628Z,995.97
2019-01-13T04:05:32.633Z,995.86
2019-01-13T04:06:32.608Z,995.88
2019-01-13T04:07:32.598Z,995.84
2019-01-13T04:08:32.588Z,995.87
2019-01-13T04:09:32.692Z,995.90
2019-01-13T04:10:32.844Z,995.86
2019-01-13T04:11:32.574Z,995.88
2019-01-13T04:12:32.553Z,995.87
2019-01-13T04:13:32.549Z,995.83
2019-01-13T04:14:32.523Z,995.86
2019-01-13T04:15:32.589Z,995.88
2019-01-13T04:16:32.502Z,995.93
2019-01-13T04:17:32.799Z,995.98
2019-01-13T04:18:32.481Z,995.98
2019-01-13T04:19:32.470Z,995.95
2019-01-13T04:20:32.460Z,995.93
2019-01-13T04:21:32.579Z,995.83
2019-01-13T04:22:32.440Z,995.86
2019-01-13T04:23:32.429Z,995.81
2019-01-13T04:24:32.424Z,995.77
2019-01-13T04:25:32.408Z,995.79
2019-01-13T04:26:32.411Z,995.77
2019-01-13T04:27:32.629Z,995.71
2019-01-13T04:28:32.376Z,995.65
2019-01-13T04:29:32.367Z,995.64
2019-01-13T04:30:32.635Z,995.62
2019-01-13T04:31:32.388Z,995.55
2019-01-13T04:32:32.347Z,995.49
2019-01-13T04:33:32.429Z,995.46
2019-01-13T04:34:32.317Z,995.38
2019-01-13T04:35:32.304Z,995.34
2019-01-13T04:36:32.295Z,995.31
2019-01-13T04:37:32.602Z,995.28
2019-01-13T04:38:32.276Z,995.20
2019-01-13T04:39:32.392Z,995.20
2019-01-13T04:40:32.256Z,995.16
2019-01-13T04:41:32.242Z,995.12
2019-01-13T04:42:32.234Z,995.17
2019-01-13T04:43:32.222Z,995.20
2019-01-13T04:44:32.505Z,995.15
2019-01-13T04:45:32.290Z,995.22
2019-01-13T04:46:32.191Z,995.19
2019-01-13T04:47:32.183Z,995.14
2019-01-13T04:48:32.168Z,995.13
2019-01-13T04:49:32.158Z,995.10
2019-01-13T04:50:32.151Z,995.05
2019-01-13T04:51:32.497Z,995.06
2019-01-13T04:52:32.148Z,995.02
2019-01-13T04:53:32.119Z,995.02
2019-01-13T04:54:32.105Z,995.02
2019-01-13T04:55:32.094Z,995.01
2019-01-13T04:56:32.090Z,995.02
2019-01-13T04:57:32.142Z,995.08
2019-01-13T04:58:32.346Z,995.08
2019-01-13T04:59:32.059Z,994.99
2019-01-13T05:00:32.046Z,995.08
2019-01-13T05:01:34.544Z,995.00
2019-01-13T05:02:32.022Z,995.04
2019-01-13T05:03:32.095Z,995.09
2019-01-13T05:04:32.000Z,995.07
2019-01-13T05:05:31.995Z,995.05
2019-01-13T05:06:31.981Z,995.04
2019-01-13T05:07:31.970Z,995.06
2019-01-13T05:08:31.959Z,995.08
2019-01-13T05:09:32.019Z,995.07
2019-01-13T05:10:31.941Z,995.05
2019-01-13T05:11:32.205Z,995.03
2019-01-13T05:12:31.917Z,995.07
2019-01-13T05:13:31.909Z,995.07
2019-01-13T05:14:31.897Z,995.04
2019-01-13T05:15:31.957Z,995.02
2019-01-13T05:16:31.876Z,994.96
2019-01-13T05:17:33.667Z,995.06
2019-01-13T05:18:32.130Z,994.98
2019-01-13T05:19:31.849Z,994.98
2019-01-13T05:20:31.836Z,994.87
2019-01-13T05:21:31.925Z,994.88
2019-01-13T05:22:31.820Z,994.81
2019-01-13T05:23:31.803Z,994.80
2019-01-13T05:24:31.792Z,994.84
2019-01-13T05:25:32.063Z,994.80
2019-01-13T05:26:31.773Z,994.84
2019-01-13T05:27:31.876Z,994.86
2019-01-13T05:28:31.758Z,994.92
2019-01-13T05:29:31.741Z,994.87
2019-01-13T05:30:31.729Z,994.82
2019-01-13T05:31:32.009Z,994.79
2019-01-13T05:32:31.710Z,994.82
2019-01-13T05:33:31.766Z,994.77
2019-01-13T05:34:31.689Z,994.73
2019-01-13T05:35:31.679Z,994.77
2019-01-13T05:36:31.668Z,994.71
2019-01-13T05:37:31.660Z,994.71
2019-01-13T05:38:31.666Z,994.69
2019-01-13T05:39:31.741Z,994.66
2019-01-13T05:40:31.630Z,994.64
2019-01-13T05:41:31.616Z,994.63
2019-01-13T05:42:31.612Z,994.60
2019-01-13T05:43:31.903Z,994.60
2019-01-13T05:44:31.585Z,994.54
2019-01-13T05:45:31.651Z,994.53
2019-01-13T05:46:31.566Z,994.51
2019-01-13T05:47:31.552Z,994.46
2019-01-13T05:48:31.544Z,994.43
2019-01-13T05:49:31.532Z,994.44
2019-01-13T05:50:31.524Z,994.40
2019-01-13T05:51:31.584Z,994.38
2019-01-13T05:52:31.501Z,994.39
2019-01-13T05:53:31.489Z,994.32
2019-01-13T05:54:31.482Z,994.36
2019-01-13T05:55:31.747Z,994.28
2019-01-13T05:56:31.460Z,994.27
2019-01-13T05:57:31.549Z,994.29
2019-01-13T05:58:31.440Z,994.23
2019-01-13T05:59:31.428Z,994.19
2019-01-13T06:00:31.417Z,994.15
2019-01-13T06:01:31.714Z,994.21
2019-01-13T06:02:31.396Z,994.22
2019-01-13T06:03:31.505Z,994.14
2019-01-13T06:04:31.377Z,994.15
2019-01-13T06:05:31.370Z,994.12
2019-01-13T06:06:31.354Z,994.11
2019-01-13T06:07:31.349Z,994.08
2019-01-13T06:08:31.611Z,994.08
2019-01-13T06:09:31.395Z,994.04
2019-01-13T06:10:31.315Z,994.02
2019-01-13T06:11:31.303Z,994.01
2019-01-13T06:12:31.291Z,994.00
2019-01-13T06:13:31.284Z,994.04
2019-01-13T06:14:31.269Z,994.03
2019-01-13T06:15:31.636Z,994.02
2019-01-13T06:16:31.251Z,993.94
2019-01-13T06:17:31.241Z,993.91
2019-01-13T06:18:31.228Z,993.93
2019-01-13T06:19:31.220Z,993.97
2019-01-13T06:20:31.212Z,993.94
2019-01-13T06:21:31.409Z,993.89
2019-01-13T06:22:31.465Z,993.92
2019-01-13T06:23:31.176Z,993.91
2019-01-13T06:24:31.167Z,993.90
2019-01-13T06:25:31.160Z,993.89
2019-01-13T06:26:31.147Z,993.85
2019-01-13T06:27:31.203Z,993.88
2019-01-13T06:28:31.129Z,993.97
2019-01-13T06:29:31.421Z,993.84
2019-01-13T06:30:31.103Z,993.84
2019-01-13T06:31:31.093Z,993.85
2019-01-13T06:32:31.083Z,993.85
2019-01-13T06:33:31.166Z,993.83
2019-01-13T06:34:31.069Z,993.82
2019-01-13T06:35:31.064Z,993.81
2019-01-13T06:36:31.350Z,993.76
2019-01-13T06:37:31.039Z,993.80
2019-01-13T06:38:31.020Z,993.78
2019-01-13T06:39:31.087Z,993.82
2019-01-13T06:40:31.003Z,993.79
2019-01-13T06:41:30.987Z,993.75
2019-01-13T06:42:30.981Z,993.74
2019-01-13T06:43:31.260Z,993.75
2019-01-13T06:44:30.956Z,993.75
2019-01-13T06:45:31.067Z,993.73
2019-01-13T06:46:30.944Z,993.76
2019-01-13T06:47:30.931Z,993.80
2019-01-13T06:48:30.918Z,993.82
2019-01-13T06:49:30.903Z,993.76
2019-01-13T06:50:31.184Z,993.74
2019-01-13T06:51:31.138Z,993.74
2019-01-13T06:52:30.883Z,993.72
2019-01-13T06:53:30.862Z,993.71
2019-01-13T06:54:30.852Z,993.72
2019-01-13T06:55:30.840Z,993.65
2019-01-13T06:56:30.831Z,993.66
2019-01-13T06:57:31.176Z,993.69
2019-01-13T06:58:30.811Z,993.62
2019-01-13T06:59:30.799Z,993.64
2019-01-13T07:00:31.967Z,993.58
2019-01-13T07:01:30.778Z,993.51
2019-01-13T07:02:30.778Z,993.53
2019-01-13T07:03:30.829Z,993.51
2019-01-13T07:04:31.036Z,993.50
2019-01-13T07:05:30.737Z,993.51
2019-01-13T07:06:30.732Z,993.53
2019-01-13T07:07:30.717Z,993.53
2019-01-13T07:08:30.706Z,993.55
2019-01-13T07:09:30.794Z,993.55
2019-01-13T07:10:30.686Z,993.53
2019-01-13T07:11:30.953Z,993.54
2019-01-13T07:12:30.664Z,993.53
2019-01-13T07:13:30.653Z,993.54
2019-01-13T07:14:30.645Z,993.53
2019-01-13T07:15:30.757Z,993.56
2019-01-13T07:16:30.625Z,993.51
2019-01-13T07:17:30.611Z,993.46
2019-01-13T07:18:30.879Z,993.39
2019-01-13T07:19:30.603Z,993.33
2019-01-13T07:20:30.579Z,993.34
2019-01-13T07:21:30.646Z,993.25
2019-01-13T07:22:30.561Z,993.23
2019-01-13T07:23:30.558Z,993.18
2019-01-13T07:24:30.539Z,993.17
2019-01-13T07:25:30.809Z,993.16
2019-01-13T07:26:30.517Z,993.16
2019-01-13T07:27:30.890Z,993.19
2019-01-13T07:28:30.498Z,993.13
2019-01-13T07:29:30.488Z,993.13
2019-01-13T07:30:30.475Z,993.09
2019-01-13T07:31:30.758Z,993.10
2019-01-13T07:32:30.457Z,993.11
2019-01-13T07:33:30.515Z,993.06
2019-01-13T07:34:30.433Z,993.07
2019-01-13T07:35:30.441Z,993.00
2019-01-13T07:36:30.412Z,992.90
2019-01-13T07:37:30.741Z,992.88
2019-01-13T07:38:30.431Z,992.90
2019-01-13T07:39:30.416Z,992.89
2019-01-13T07:40:30.370Z,992.89
2019-01-13T07:41:30.430Z,992.86
2019-01-13T07:42:30.367Z,992.82
2019-01-13T07:43:30.339Z,992.86
2019-01-13T07:44:30.332Z,992.75
2019-01-13T07:45:30.537Z,992.74
2019-01-13T07:46:30.312Z,992.72
2019-01-13T07:47:30.298Z,992.67
2019-01-13T07:48:30.288Z,992.67
2019-01-13T07:49:30.571Z,992.61
2019-01-13T07:50:30.266Z,992.61
2019-01-13T07:51:30.297Z,992.54
2019-01-13T07:52:30.245Z,992.48
2019-01-13T07:53:30.235Z,992.47
2019-01-13T07:54:30.225Z,992.55
2019-01-13T07:55:30.215Z,992.54
2019-01-13T07:56:30.511Z,992.52
2019-01-13T07:57:30.240Z,992.49
2019-01-13T07:58:30.182Z,992.40
2019-01-13T07:59:30.173Z,992.40
2019-01-13T08:00:30.163Z,992.34
2019-01-13T08:01:30.151Z,992.39
2019-01-13T08:02:30.140Z,992.35
2019-01-13T08:03:30.459Z,992.37
2019-01-13T08:04:30.128Z,992.36
2019-01-13T08:05:30.116Z,992.37
2019-01-13T08:06:31.007Z,992.25
2019-01-13T08:07:30.089Z,992.18
2019-01-13T08:08:30.078Z,992.12
2019-01-13T08:09:30.147Z,992.14
2019-01-13T08:10:30.363Z,992.16
2019-01-13T08:11:30.047Z,992.13
2019-01-13T08:12:30.036Z,992.10
2019-01-13T08:13:30.034Z,992.04
2019-01-13T08:14:30.026Z,991.96
2019-01-13T08:15:30.045Z,991.99
2019-01-13T08:16:29.995Z,991.94
2019-01-13T08:17:30.265Z,991.93
2019-01-13T08:18:29.974Z,991.90
2019-01-13T08:19:29.976Z,991.86
2019-01-13T08:20:29.961Z,991.79
2019-01-13T08:21:30.010Z,991.75
2019-01-13T08:22:29.934Z,991.76
2019-01-13T08:23:29.923Z,991.74
2019-01-13T08:24:30.194Z,991.74
2019-01-13T08:25:29.906Z,991.69
2019-01-13T08:26:29.893Z,991.65
2019-01-13T08:27:29.950Z,991.59
2019-01-13T08:28:29.873Z,991.58
2019-01-13T08:29:29.865Z,991.58
2019-01-13T08:30:29.851Z,991.52
2019-01-13T08:31:29.842Z,991.51
2019-01-13T08:32:29.844Z,991.56
2019-01-13T08:33:29.856Z,991.56
2019-01-13T08:34:29.819Z,991.58
2019-01-13T08:35:29.799Z,991.52
2019-01-13T08:36:29.790Z,991.47
2019-01-13T08:37:30.142Z,991.43
2019-01-13T08:38:29.769Z,991.46
2019-01-13T08:39:29.807Z,991.51
2019-01-13T08:40:29.749Z,991.46
2019-01-13T08:41:29.742Z,991.44
2019-01-13T08:42:29.738Z,991.37
2019-01-13T08:43:29.731Z,991.34
2019-01-13T08:44:30.148Z,991.33
2019-01-13T08:45:29.741Z,991.33
2019-01-13T08:46:29.687Z,991.35
2019-01-13T08:47:29.681Z,991.29
2019-01-13T08:48:29.664Z,991.28
2019-01-13T08:49:29.657Z,991.27
2019-01-13T08:50:29.644Z,991.22
2019-01-13T08:51:31.675Z,991.29
2019-01-13T08:52:29.628Z,991.25
2019-01-13T08:53:29.612Z,991.23
2019-01-13T08:54:29.605Z,991.16
2019-01-13T08:55:29.592Z,991.14
2019-01-13T08:56:29.586Z,991.12
2019-01-13T08:57:29.953Z,991.07
2019-01-13T08:58:29.853Z,991.10
2019-01-13T08:59:29.552Z,991.08
2019-01-13T09:00:29.542Z,991.08
2019-01-13T09:01:29.531Z,991.06
2019-01-13T09:02:32.269Z,991.10
2019-01-13T09:03:29.888Z,991.08
2019-01-13T09:04:29.517Z,990.99
2019-01-13T09:05:29.985Z,990.91
2019-01-13T09:06:29.491Z,990.98
2019-01-13T09:07:29.470Z,990.99
2019-01-13T09:08:29.502Z,990.96
2019-01-13T09:09:30.187Z,991.02
2019-01-13T09:10:29.464Z,990.94
2019-01-13T09:11:29.431Z,990.97
2019-01-13T09:12:29.705Z,990.90
2019-01-13T09:13:29.408Z,990.91
2019-01-13T09:14:29.436Z,990.90
2019-01-13T09:15:29.454Z,990.92
2019-01-13T09:16:29.378Z,990.92
2019-01-13T09:17:29.368Z,990.87
2019-01-13T09:18:29.355Z,990.90
2019-01-13T09:19:29.654Z,990.88
2019-01-13T09:20:29.338Z,990.88
2019-01-13T09:21:29.378Z,990.82
2019-01-13T09:22:29.322Z,990.76
2019-01-13T09:23:29.303Z,990.77
2019-01-13T09:24:29.294Z,990.75
2019-01-13T09:25:29.284Z,990.68
2019-01-13T09:26:29.585Z,990.64
2019-01-13T09:27:29.309Z,990.55
2019-01-13T09:28:29.254Z,990.60
2019-01-13T09:29:29.262Z,990.45
2019-01-13T09:30:29.233Z,990.50
2019-01-13T09:31:29.223Z,990.48
2019-01-13T09:32:29.212Z,990.47
2019-01-13T09:33:29.651Z,990.43
2019-01-13T09:34:29.193Z,990.37
2019-01-13T09:35:29.191Z,990.39
2019-01-13T09:36:29.174Z,990.36
2019-01-13T09:37:29.163Z,990.32
2019-01-13T09:38:29.156Z,990.30
2019-01-13T09:39:29.186Z,990.30
2019-01-13T09:40:29.413Z,990.29
2019-01-13T09:41:29.124Z,990.39
2019-01-13T09:42:29.111Z,990.28
2019-01-13T09:43:29.113Z,990.19
2019-01-13T09:44:29.095Z,990.27
2019-01-13T09:45:29.118Z,990.29
2019-01-13T09:46:29.084Z,990.22
2019-01-13T09:47:29.546Z,990.19
2019-01-13T09:48:29.048Z,990.23
2019-01-13T09:49:29.037Z,990.23
2019-01-13T09:50:29.030Z,990.30
2019-01-13T09:51:29.107Z,990.27
2019-01-13T09:52:29.996Z,990.24
2019-01-13T09:53:28.995Z,990.22
2019-01-13T09:54:29.983Z,990.37
2019-01-13T09:55:28.987Z,990.29
2019-01-13T09:56:28.969Z,990.31
2019-01-13T09:57:29.025Z,990.31
2019-01-13T09:58:28.945Z,990.26
2019-01-13T09:59:29.488Z,990.29
2019-01-13T10:00:29.490Z,990.23
2019-01-13T10:01:31.901Z,990.22
2019-01-13T10:02:29.488Z,990.20
2019-01-13T10:03:31.988Z,990.13
2019-01-13T10:04:28.882Z,990.13
2019-01-13T10:05:29.455Z,990.21
2019-01-13T10:06:29.974Z,990.13
2019-01-13T10:07:29.771Z,990.18
2019-01-13T10:08:29.451Z,990.15
2019-01-13T10:09:29.991Z,990.10
2019-01-13T10:10:28.821Z,989.97
2019-01-13T10:11:28.807Z,989.95
2019-01-13T10:12:28.796Z,989.95
2019-01-13T10:13:28.788Z,989.97
2019-01-13T10:14:29.951Z,989.93
2019-01-13T10:15:28.805Z,989.84
2019-01-13T10:16:28.755Z,989.90
2019-01-13T10:17:28.743Z,989.86
2019-01-13T10:18:28.734Z,989.81
2019-01-13T10:19:28.731Z,989.84
2019-01-13T10:20:28.710Z,989.78
2019-01-13T10:21:30.400Z,989.71
2019-01-13T10:22:28.689Z,989.72
2019-01-13T10:23:28.681Z,989.72
2019-01-13T10:24:28.667Z,989.70
2019-01-13T10:25:28.657Z,989.65
2019-01-13T10:26:28.644Z,989.59
2019-01-13T10:27:30.392Z,989.63
2019-01-13T10:28:29.454Z,989.57
2019-01-13T10:29:28.613Z,989.59
2019-01-13T10:30:28.613Z,989.56
2019-01-13T10:31:28.591Z,989.56
2019-01-13T10:32:28.611Z,989.59
2019-01-13T10:33:28.686Z,989.48
2019-01-13T10:34:28.559Z,989.49
2019-01-13T10:35:29.067Z,989.49
2019-01-13T10:36:28.542Z,989.53
2019-01-13T10:37:28.527Z,989.53
2019-01-13T10:38:28.519Z,989.48
2019-01-13T10:39:28.707Z,989.45
2019-01-13T10:40:28.501Z,989.43
2019-01-13T10:41:28.489Z,989.47
2019-01-13T10:42:28.758Z,989.46
2019-01-13T10:43:28.465Z,989.41
2019-01-13T10:44:28.457Z,989.46
2019-01-13T10:45:28.607Z,989.41
2019-01-13T10:46:28.434Z,989.45
2019-01-13T10:47:28.442Z,989.41
2019-01-13T10:48:28.417Z,989.33
2019-01-13T10:49:28.869Z,989.34
2019-01-13T10:50:28.653Z,989.28
2019-01-13T10:51:28.718Z,989.23
2019-01-13T10:52:28.663Z,989.20
2019-01-13T10:53:28.466Z,989.23
2019-01-13T10:54:28.358Z,989.17
2019-01-13T10:55:28.345Z,989.16
2019-01-13T10:56:28.677Z,989.20
2019-01-13T10:57:29.480Z,989.23
2019-01-13T10:58:28.305Z,989.19
2019-01-13T10:59:28.295Z,989.15
2019-01-13T11:00:28.288Z,989.22
2019-01-13T11:01:28.274Z,989.13
2019-01-13T11:02:28.263Z,989.16
2019-01-13T11:03:28.854Z,989.12
2019-01-13T11:04:28.242Z,989.08
2019-01-13T11:05:28.246Z,989.08
2019-01-13T11:06:28.225Z,989.05
2019-01-13T11:07:28.407Z,989.01
2019-01-13T11:08:28.342Z,989.02
2019-01-13T11:09:28.448Z,988.91
2019-01-13T11:10:30.623Z,988.95
2019-01-13T11:11:28.268Z,988.89
2019-01-13T11:12:28.162Z,988.89
2019-01-13T11:13:28.152Z,988.96
2019-01-13T11:14:28.150Z,988.87
2019-01-13T11:15:28.174Z,988.89
2019-01-13T11:16:28.116Z,988.85
2019-01-13T11:17:28.469Z,988.81
2019-01-13T11:18:28.110Z,988.73
2019-01-13T11:19:28.185Z,988.78
2019-01-13T11:20:28.244Z,988.82
2019-01-13T11:21:28.417Z,988.79
2019-01-13T11:22:28.188Z,988.76
2019-01-13T11:23:28.041Z,988.72
2019-01-13T11:24:28.366Z,988.73
2019-01-13T11:25:28.022Z,988.68
2019-01-13T11:26:28.009Z,988.70
2019-01-13T11:27:28.047Z,988.66
2019-01-13T11:28:27.990Z,988.72
2019-01-13T11:29:32.670Z,988.75
2019-01-13T11:30:27.972Z,988.63
2019-01-13T11:31:27.956Z,988.69
2019-01-13T11:32:27.945Z,988.64
2019-01-13T11:33:27.967Z,988.69
2019-01-13T11:34:28.478Z,988.60
2019-01-13T11:35:28.479Z,988.57
2019-01-13T11:36:27.924Z,988.49
2019-01-13T11:37:27.894Z,988.46
2019-01-13T11:38:27.884Z,988.50
2019-01-13T11:39:27.922Z,988.42
2019-01-13T11:40:27.873Z,988.43
2019-01-13T11:41:27.853Z,988.36
2019-01-13T11:42:27.842Z,988.37
2019-01-13T11:43:28.325Z,988.31
2019-01-13T11:44:27.819Z,988.33
2019-01-13T11:45:27.847Z,988.25
2019-01-13T11:46:27.799Z,988.21
2019-01-13T11:47:27.784Z,988.20
2019-01-13T11:48:27.851Z,988.13
2019-01-13T11:49:27.775Z,988.15
2019-01-13T11:50:27.754Z,988.07
2019-01-13T11:51:28.099Z,988.13
2019-01-13T11:52:27.731Z,988.02
2019-01-13T11:53:27.722Z,988.11
2019-01-13T11:54:27.713Z,988.12
2019-01-13T11:55:28.087Z,988.11
2019-01-13T11:56:27.698Z,988.07
2019-01-13T11:57:27.909Z,988.08
2019-01-13T11:58:27.668Z,988.09
2019-01-13T11:59:27.663Z,988.04
2019-01-13T12:00:27.704Z,988.04
2019-01-13T12:01:27.638Z,988.08
2019-01-13T12:02:32.617Z,988.03
2019-01-13T12:03:28.984Z,988.00
2019-01-13T12:04:27.603Z,988.03
2019-01-13T12:05:27.599Z,987.99
2019-01-13T12:06:27.582Z,988.01
2019-01-13T12:07:28.918Z,987.96
2019-01-13T12:08:27.564Z,987.94
2019-01-13T12:09:28.154Z,987.95
2019-01-13T12:10:27.545Z,987.87
2019-01-13T12:11:27.538Z,987.87
2019-01-13T12:12:27.519Z,987.93
2019-01-13T12:13:27.511Z,987.86
2019-01-13T12:14:27.496Z,987.84
2019-01-13T12:15:27.528Z,987.79
2019-01-13T12:16:27.763Z,987.83
2019-01-13T12:17:27.493Z,987.78
2019-01-13T12:18:27.459Z,987.77
2019-01-13T12:19:27.447Z,987.77
2019-01-13T12:20:27.434Z,987.78
2019-01-13T12:21:27.458Z,987.76
2019-01-13T12:22:27.413Z,987.73
2019-01-13T12:23:27.677Z,987.74
2019-01-13T12:24:27.398Z,987.68
2019-01-13T12:25:27.381Z,987.60
2019-01-13T12:26:27.369Z,987.67
2019-01-13T12:27:28.680Z,987.59
2019-01-13T12:28:27.357Z,987.53
2019-01-13T12:29:27.339Z,987.50